Time;durP1;ratioP1;P1;durP2;ratioP2;P2;SDS_P1;SDS_P2;PMS_P1;PMS_P2;Temp;Humidity;BMP_temperature;BMP_pressure;BME280_temperature;BME280_humidity;BME280_pressure;Samples;Min_cycle;Max_cycle;Signal;HPM_P1;HPM_P2
2021/04/06 00:00:22;;;;;;;4.87;1.60;;;;;;;2.09;60.70;99106.94;5053591;27;99949;-78
2021/04/06 00:02:50;;;;;;;6.03;1.90;;;;;;;2.09;60.48;99106.94;5036653;27;100916;-80
2021/04/06 00:05:18;;;;;;;4.93;1.60;;;;;;;2.03;60.44;99117.44;5037613;27;96547;-80
2021/04/06 00:07:48;;;;;;;4.77;1.63;;;;;;;2.01;60.81;99112.28;5036736;27;97057;-78
2021/04/06 00:10:22;;;;;;;10.57;3.93;;;;;;;1.98;60.24;99116.69;5036148;27;99579;-79
2021/04/06 00:12:52;;;;;;;12.87;5.80;;;;;;;1.96;60.87;99123.59;5053285;27;99408;-80
2021/04/06 00:15:19;;;;;;;17.30;4.20;;;;;;;1.99;61.15;99127.00;5020497;27;96848;-80
2021/04/06 00:17:47;;;;;;;5.77;1.97;;;;;;;1.96;60.67;99121.03;5036371;27;97118;-80
2021/04/06 00:20:17;;;;;;;7.60;1.97;;;;;;;1.96;60.32;99121.03;5020272;27;100872;-81
2021/04/06 00:22:45;;;;;;;7.70;1.70;;;;;;;1.94;60.82;99126.22;5036110;27;101222;-78
2021/04/06 00:25:21;;;;;;;8.07;1.90;;;;;;;1.95;60.99;99133.13;5037568;27;96716;-79
2021/04/06 00:27:48;;;;;;;7.17;1.83;;;;;;;1.91;60.75;99133.19;5036399;27;97337;-78
2021/04/06 00:30:20;;;;;;;6.83;2.40;;;;;;;1.89;60.37;99133.22;5020214;27;98790;-80
2021/04/06 00:32:54;;;;;;;17.67;2.75;;;;;;;1.89;60.56;99138.41;5036657;27;100886;-80
2021/04/06 00:35:26;;;;;;;7.60;1.53;;;;;;;1.86;60.37;99141.00;5053244;27;97033;-80
2021/04/06 00:37:52;;;;;;;4.78;1.95;;;;;;;1.83;60.88;99141.06;5036009;27;97469;-81
2021/04/06 00:40:20;;;;;;;5.23;1.90;;;;;;;1.78;61.24;99138.59;5036545;27;99896;-79
2021/04/06 00:42:59;;;;;;;6.77;1.87;;;;;;;1.79;60.48;99145.44;5054921;27;99562;-78
2021/04/06 00:45:26;;;;;;;6.20;1.77;;;;;;;1.81;61.04;99142.84;5040382;27;97389;-78
2021/04/06 00:48:20;;;;;;;4.90;2.27;;;;;;;1.72;60.74;99143.88;5039634;27;97242;-80
2021/04/06 00:51:27;;;;;;;9.00;2.10;;;;;;;1.70;60.61;99149.94;4938353;28;101241;-78
2021/04/06 00:54:15;;;;;;;6.37;1.90;;;;;;;1.65;60.86;99144.81;4932313;28;99403;-80
2021/04/06 00:56:42;;;;;;;7.80;2.83;;;;;;;1.66;60.58;99148.25;4880055;28;96722;-80
2021/04/06 00:59:13;;;;;;;5.93;1.73;;;;;;;1.63;61.13;99153.50;4881573;28;97163;-81
2021/04/06 01:01:44;;;;;;;5.37;1.83;;;;;;;1.64;60.86;99142.28;4863713;28;101938;-80
2021/04/06 01:04:20;;;;;;;7.78;1.63;;;;;;;1.65;60.87;99151.75;4881559;28;99891;-79
2021/04/06 01:07:17;;;;;;;5.67;1.40;;;;;;;1.69;61.42;99156.84;4880894;28;97172;-78
2021/04/06 01:09:42;;;;;;;6.33;1.80;;;;;;;1.70;61.21;99155.13;4896806;28;96909;-78
2021/04/06 01:12:11;;;;;;;19.00;2.67;;;;;;;1.76;60.80;99161.03;4896402;28;100328;-80
2021/04/06 01:14:41;;;;;;;7.97;1.40;;;;;;;1.79;60.59;99163.56;4864544;28;99346;-82
2021/04/06 01:17:11;;;;;;;5.77;1.93;;;;;;;1.77;60.45;99165.31;4897433;28;96827;-81
2021/04/06 01:19:36;;;;;;;10.03;1.90;;;;;;;1.86;60.27;99159.13;4881195;28;97090;-81
2021/04/06 01:22:06;;;;;;;9.33;1.73;;;;;;;1.81;60.68;99167.00;4896905;28;99842;-80
2021/04/06 01:24:39;;;;;;;6.97;1.60;;;;;;;1.81;61.09;99166.16;4881020;28;100963;-80
2021/04/06 01:27:31;;;;;;;7.77;2.50;;;;;;;1.79;61.24;99167.88;4904103;28;97248;-78
2021/04/06 01:29:58;;;;;;;7.57;1.60;;;;;;;1.81;60.86;99171.31;4942255;28;97240;-78
2021/04/06 01:32:28;;;;;;;6.90;1.60;;;;;;;1.86;60.64;99171.22;4941560;28;101245;-79
2021/04/06 01:34:55;;;;;;;15.00;3.43;;;;;;;1.88;60.92;99166.88;5034445;27;99644;-80
2021/04/06 01:37:23;;;;;;;12.60;2.10;;;;;;;1.84;61.25;99170.41;5038998;27;96736;-80
2021/04/06 01:39:52;;;;;;;9.20;2.10;;;;;;;1.84;61.03;99178.19;5021965;27;96641;-78
2021/04/06 01:42:24;;;;;;;5.40;1.67;;;;;;;1.92;61.20;99177.16;5022699;27;99343;-78
2021/04/06 01:44:54;;;;;;;8.90;1.80;;;;;;;1.94;61.48;99175.38;5051212;27;99124;-78
2021/04/06 01:47:20;;;;;;;7.00;1.83;;;;;;;1.88;62.25;99185.84;5019097;27;96603;-79
2021/04/06 01:49:46;;;;;;;5.40;1.53;;;;;;;1.88;62.36;99191.03;5034578;27;96831;-79
2021/04/06 01:52:39;;;;;;;5.90;1.50;;;;;;;1.89;62.28;99186.69;5049302;27;97049;-82
2021/04/06 01:55:12;;;;;;;7.33;2.00;;;;;;;1.91;62.42;99198.75;5018359;27;98962;-79
2021/04/06 01:57:41;;;;;;;8.20;2.00;;;;;;;1.91;62.54;99192.72;5036179;27;96695;-82
2021/04/06 02:00:30;;;;;;;10.07;2.30;;;;;;;1.92;62.35;99189.22;5036000;27;96749;-79
2021/04/06 02:03:04;;;;;;;7.53;1.77;;;;;;;1.90;62.92;99199.63;5032019;27;99551;-79
2021/04/06 02:05:31;;;;;;;13.23;3.07;;;;;;;1.93;61.90;99189.22;5053437;27;99301;-79
2021/04/06 02:08:13;;;;;;;7.88;1.65;;;;;;;1.88;61.77;99196.19;5019416;27;96664;-78
2021/04/06 02:10:40;;;;;;;7.27;2.17;;;;;;;1.80;61.98;99191.19;5035680;27;96843;-82
2021/04/06 02:13:16;;;;;;;10.83;2.20;;;;;;;1.86;61.93;99185.00;5017022;27;101503;-78
2021/04/06 02:15:58;;;;;;;4.63;1.53;;;;;;;1.77;61.44;99191.19;5017448;27;100388;-82
2021/04/06 02:18:26;;;;;;;7.07;1.77;;;;;;;1.80;61.08;99185.13;5018249;27;96645;-81
2021/04/06 02:20:56;;;;;;;8.47;1.73;;;;;;;1.78;61.32;99186.91;5049112;27;97022;-79
2021/04/06 02:23:24;;;;;;;8.07;1.80;;;;;;;1.69;61.26;99187.06;5034843;27;99388;-80
2021/04/06 02:25:55;;;;;;;10.93;2.13;;;;;;;1.68;60.69;99187.91;5033419;27;100768;-79
2021/04/06 02:28:26;;;;;;;6.33;1.97;;;;;;;1.64;61.42;99194.88;5018144;27;96644;-80
2021/04/06 02:31:00;;;;;;;6.30;1.57;;;;;;;1.58;61.51;99190.66;5017668;27;96634;-80
2021/04/06 02:33:33;;;;;;;10.07;2.63;;;;;;;1.55;60.99;99189.84;5025802;27;99378;-80
2021/04/06 02:36:17;;;;;;;9.53;2.03;;;;;;;1.52;61.19;99198.50;5021114;27;101092;-79
2021/04/06 02:38:45;;;;;;;8.00;1.67;;;;;;;1.52;61.17;99200.25;5055005;27;96642;-82
2021/04/06 02:41:13;;;;;;;10.43;2.13;;;;;;;1.44;60.79;99190.00;5037194;27;96801;-80
2021/04/06 02:43:55;;;;;;;8.00;1.83;;;;;;;1.41;61.60;99195.22;5040291;27;102324;-81
2021/04/06 02:46:25;;;;;;;5.53;1.40;;;;;;;1.38;61.09;99195.25;5041436;27;98529;-81
2021/04/06 02:48:54;;;;;;;7.03;1.87;;;;;;;1.39;61.52;99188.34;5040520;27;97285;-81
2021/04/06 02:51:22;;;;;;;9.10;1.77;;;;;;;1.34;61.45;99197.06;5058780;27;96844;-78
2021/04/06 02:53:52;;;;;;;7.00;1.90;;;;;;;1.34;60.98;99193.63;5040801;27;101613;-79
2021/04/06 02:56:35;;;;;;;8.43;1.80;;;;;;;1.38;61.54;99197.84;5052718;27;99836;-78
2021/04/06 02:59:20;;;;;;;4.43;1.53;;;;;;;1.32;61.52;99203.13;5040787;27;97241;-81
2021/04/06 03:01:52;;;;;;;5.23;1.30;;;;;;;1.28;60.84;99204.03;5058246;27;96755;-83
2021/04/06 03:04:22;;;;;;;2.30;1.03;;;;;;;1.31;61.21;99204.84;5041516;27;99845;-78
2021/04/06 03:06:52;;;;;;;5.73;1.33;;;;;;;1.27;61.66;99192.81;5057547;27;99834;-78
2021/04/06 03:09:26;;;;;;;7.80;1.50;;;;;;;1.27;61.28;99204.91;5041187;27;97121;-80
2021/04/06 03:11:57;;;;;;;8.43;2.00;;;;;;;1.33;61.14;99199.66;5057451;27;96883;-78
2021/04/06 03:14:26;;;;;;;8.57;1.50;;;;;;;1.38;61.51;99200.44;5074589;27;99504;-81
2021/04/06 03:16:54;;;;;;;6.63;1.63;;;;;;;1.40;61.03;99197.81;5024476;27;99506;-79
2021/04/06 03:19:32;;;;;;;7.37;1.70;;;;;;;1.40;61.36;99192.63;5058259;27;97108;-80
2021/04/06 03:22:01;;;;;;;3.83;1.77;;;;;;;1.38;60.74;99197.00;5057877;27;97099;-79
2021/04/06 03:24:29;;;;;;;4.90;1.60;;;;;;;1.32;61.06;99203.97;5057724;27;101234;-79
2021/04/06 03:27:03;;;;;;;7.57;1.50;;;;;;;1.31;60.86;99198.84;5074177;27;98321;-80
2021/04/06 03:29:31;;;;;;;9.13;2.47;;;;;;;1.30;61.08;99210.03;5057792;27;96641;-80
2021/04/06 03:31:58;;;;;;;7.73;2.07;;;;;;;1.28;60.69;99209.19;5023703;27;96836;-79
2021/04/06 03:34:34;;;;;;;8.43;2.50;;;;;;;1.36;60.51;99215.13;5033320;27;99869;-78
2021/04/06 03:37:04;;;;;;;14.57;2.43;;;;;;;1.40;60.51;99213.34;5072901;27;100560;-78
2021/04/06 03:39:33;;;;;;;6.97;2.23;;;;;;;1.40;60.33;99219.38;5058030;27;96604;-78
2021/04/06 03:41:59;;;;;;;6.70;1.60;;;;;;;1.53;60.48;99222.63;5057192;27;96835;-80
2021/04/06 03:44:31;;;;;;;4.80;2.10;;;;;;;1.52;59.95;99224.38;5056244;27;100472;-79
2021/04/06 03:47:02;;;;;;;10.93;2.20;;;;;;;1.48;59.84;99214.94;5005998;27;99814;-78
2021/04/06 03:49:31;;;;;;;10.57;1.97;;;;;;;1.42;60.53;99233.13;5041251;27;96588;-80
2021/04/06 03:52:09;;;;;;;5.40;2.20;;;;;;;1.32;60.51;99229.81;5040564;27;96810;-79
2021/04/06 03:55:00;;;;;;;9.70;1.90;;;;;;;1.25;60.53;99229.91;5057472;27;99255;-78
2021/04/06 03:57:37;;;;;;;13.33;2.53;;;;;;;1.23;60.76;99232.53;5015296;28;98752;-81
2021/04/06 04:00:16;;;;;;;8.90;2.03;;;;;;;1.22;60.70;99228.25;5014677;28;97182;-78
2021/04/06 04:02:42;;;;;;;5.40;1.70;;;;;;;1.18;60.31;99233.47;5026556;28;97518;-80
2021/04/06 04:05:08;;;;;;;7.03;2.27;;;;;;;1.11;60.96;99233.56;5031573;28;102089;-79
2021/04/06 04:07:38;;;;;;;7.57;2.00;;;;;;;1.08;61.07;99237.91;4999144;28;100877;-78
2021/04/06 04:10:08;;;;;;;11.00;2.53;;;;;;;1.09;61.22;99235.31;5015242;28;96847;-79
2021/04/06 04:12:34;;;;;;;7.47;1.77;;;;;;;1.02;61.00;99235.38;5015993;28;96834;-80
2021/04/06 04:15:04;;;;;;;11.90;6.57;;;;;;;1.00;60.68;99232.00;5014788;28;99426;-79
2021/04/06 04:17:30;;;;;;;21.13;10.73;;;;;;;1.02;60.86;99237.97;5015812;28;98257;-79
2021/04/06 04:19:58;;;;;;;17.53;14.87;;;;;;;1.02;60.80;99230.22;5031033;28;96703;-78
2021/04/06 04:22:28;;;;;;;10.60;8.43;;;;;;;1.03;61.07;99226.78;5032109;28;97064;-80
2021/04/06 04:25:05;;;;;;;13.73;9.57;;;;;;;1.01;60.91;99229.38;5015146;28;98833;-80
2021/04/06 04:27:32;;;;;;;12.77;9.80;;;;;;;1.09;61.56;99231.88;5015510;28;99696;-82
2021/04/06 04:29:58;;;;;;;16.93;11.03;;;;;;;1.19;60.77;99225.69;5014981;28;96669;-80
2021/04/06 04:32:26;;;;;;;9.20;5.40;;;;;;;1.25;59.77;99219.56;5015864;28;96806;-80
2021/04/06 04:34:53;;;;;;;8.90;5.53;;;;;;;1.20;60.21;99226.56;5059359;27;100969;-82
2021/04/06 04:37:20;;;;;;;12.30;8.53;;;;;;;1.26;60.26;99226.47;5056945;27;99539;-77
2021/04/06 04:39:46;;;;;;;14.40;10.90;;;;;;;1.34;60.09;99235.84;5040608;27;96876;-79
2021/04/06 04:42:11;;;;;;;10.07;6.40;;;;;;;1.44;59.71;99235.69;5056365;27;97462;-81
2021/04/06 04:44:38;;;;;;;8.60;2.43;;;;;;;1.47;59.22;99235.66;5055987;27;101283;-79
2021/04/06 04:47:29;;;;;;;10.87;6.60;;;;;;;1.61;59.55;99232.88;5056841;27;97096;-80
2021/04/06 04:49:55;;;;;;;8.97;5.30;;;;;;;1.69;59.24;99241.38;5055962;27;96508;-82
2021/04/06 04:52:22;;;;;;;9.57;3.77;;;;;;;1.97;58.38;99237.47;5057158;27;96911;-81
2021/04/06 04:54:54;;;;;;;7.20;2.80;;;;;;;2.51;56.64;99233.09;5056513;27;99687;-78
2021/04/06 04:57:20;;;;;;;10.50;5.73;;;;;;;2.79;56.14;99236.84;5055932;27;101468;-80
2021/04/06 04:59:46;;;;;;;8.33;4.77;;;;;;;2.80;56.46;99225.63;5023244;27;96592;-80
2021/04/06 05:02:13;;;;;;;10.57;4.53;;;;;;;2.98;55.50;99234.75;5022098;27;97201;-79
2021/04/06 05:04:39;;;;;;;9.43;6.50;;;;;;;3.40;54.88;99233.00;5031363;27;101380;-78
2021/04/06 05:07:04;;;;;;;10.90;5.93;;;;;;;3.57;53.65;99229.16;5038959;27;101181;-80
2021/04/06 05:09:31;;;;;;;10.23;2.73;;;;;;;3.78;53.46;99232.97;5039312;27;97142;-81
2021/04/06 05:11:56;;;;;;;9.80;8.80;;;;;;;4.08;52.72;99234.84;5064479;27;97179;-85
2021/04/06 05:14:25;;;;;;;11.80;8.33;;;;;;;3.64;53.34;99241.13;5044151;27;99512;-79
2021/04/06 05:16:53;;;;;;;13.87;7.90;;;;;;;3.40;54.15;99235.59;5022529;27;100723;-80
2021/04/06 05:19:20;;;;;;;15.20;12.13;;;;;;;3.20;53.87;99235.19;5038884;27;96796;-79
2021/04/06 05:21:46;;;;;;;18.20;16.50;;;;;;;3.14;54.22;99246.53;5050093;27;96952;-79
2021/04/06 05:24:13;;;;;;;16.83;15.13;;;;;;;3.15;54.58;99253.41;5046626;27;101306;-80
2021/04/06 05:26:38;;;;;;;16.83;15.13;;;;;;;3.27;54.11;99254.91;5026432;27;101410;-79
2021/04/06 05:29:11;;;;;;;12.90;8.67;;;;;;;3.50;54.22;99263.94;5038502;27;97217;-80
2021/04/06 05:31:37;;;;;;;7.73;4.57;;;;;;;3.65;53.16;99267.91;5023115;27;96880;-79
2021/04/06 05:34:03;;;;;;;9.03;2.20;;;;;;;3.53;53.14;99274.25;5030516;27;100029;-78
2021/04/06 05:36:30;;;;;;;7.20;2.57;;;;;;;3.32;53.16;99276.41;5018422;27;99447;-78
2021/04/06 05:38:56;;;;;;;7.33;2.50;;;;;;;3.11;53.00;99295.00;5039462;27;96689;-83
2021/04/06 05:41:23;;;;;;;4.63;2.27;;;;;;;3.10;53.87;99298.47;5038808;27;96837;-78
2021/04/06 05:43:53;;;;;;;6.43;2.07;;;;;;;3.25;53.69;99297.31;5038466;27;101691;-78
2021/04/06 05:46:19;;;;;;;5.00;2.00;;;;;;;3.34;53.35;99300.56;5021334;27;99763;-78
2021/04/06 05:48:46;;;;;;;7.67;2.17;;;;;;;3.58;52.30;99307.00;5022391;27;96649;-78
2021/04/06 05:51:15;;;;;;;8.37;1.93;;;;;;;3.88;51.83;99316.72;5021456;27;96981;-78
2021/04/06 05:53:45;;;;;;;7.67;2.13;;;;;;;4.35;51.10;99318.19;5022842;27;99322;-78
2021/04/06 05:56:10;;;;;;;6.73;2.37;;;;;;;4.79;50.16;99313.59;5020850;27;99849;-78
2021/04/06 05:58:36;;;;;;;8.77;2.23;;;;;;;5.05;49.25;99312.91;5023088;27;96676;-79
2021/04/06 06:01:02;;;;;;;8.03;2.10;;;;;;;5.30;48.71;99320.88;5029925;27;97118;-80
2021/04/06 06:03:28;;;;;;;9.07;2.30;;;;;;;5.09;49.08;99313.66;5037453;27;101278;-79
2021/04/06 06:05:54;;;;;;;9.63;5.47;;;;;;;4.99;49.21;99315.66;5048658;27;99314;-79
2021/04/06 06:08:22;;;;;;;7.97;2.60;;;;;;;4.72;49.24;99318.13;5038084;27;96927;-79
2021/04/06 06:11:00;;;;;;;9.87;2.93;;;;;;;4.66;49.36;99322.63;5055344;27;96902;-78
2021/04/06 06:13:26;;;;;;;8.53;3.23;;;;;;;4.89;49.26;99322.88;5021386;27;101241;-79
2021/04/06 06:16:20;;;;;;;7.27;3.20;;;;;;;5.86;47.33;99328.75;5041507;27;100984;-82
2021/04/06 06:19:01;;;;;;;9.43;6.10;;;;;;;7.23;45.26;99324.25;5056103;27;96536;-76
2021/04/06 06:21:41;;;;;;;19.60;17.60;;;;;;;8.19;43.25;99311.03;5038285;27;96832;-77
2021/04/06 06:24:09;;;;;;;5.43;2.50;;;;;;;9.35;41.01;99313.09;5054286;27;98135;-77
2021/04/06 06:26:35;;;;;;;9.35;2.15;;;;;;;10.02;38.86;99317.84;5038103;27;101614;-78
2021/04/06 06:29:12;;;;;;;6.18;2.50;;;;;;;11.08;37.64;99304.72;5036542;27;96817;-77
2021/04/06 06:31:47;;;;;;;7.97;2.75;;;;;;;12.12;35.52;99298.25;5047984;27;97068;-76
2021/04/06 06:34:36;;;;;;;4.63;2.83;;;;;;;14.04;32.52;99306.84;5025499;27;101533;-78
2021/04/06 06:37:09;;;;;;;6.57;2.38;;;;;;;15.44;30.44;99299.28;5018231;27;101241;-78
2021/04/06 06:40:00;;;;;;;10.32;7.15;;;;;;;16.50;28.88;99292.50;5050763;27;97238;-78
2021/04/06 06:42:45;;;;;;;6.55;2.42;;;;;;;17.49;27.78;99286.69;5034629;27;97249;-76
2021/04/06 06:45:26;;;;;;;4.82;2.58;;;;;;;17.65;27.46;99284.47;5002985;27;98562;-76
2021/04/06 06:47:57;;;;;;;7.30;2.38;;;;;;;18.29;27.05;99269.63;5034999;27;101139;-78
2021/04/06 06:50:26;;;;;;;7.28;2.30;;;;;;;18.33;26.55;99265.78;5034598;27;97158;-80
2021/04/06 06:52:59;;;;;;;6.15;2.28;;;;;;;18.36;26.76;99262.03;5016640;27;97554;-76
2021/04/06 06:55:30;;;;;;;9.55;3.17;;;;;;;19.03;25.77;99259.03;5051279;27;99217;-76
2021/04/06 06:58:29;;;;;;;7.43;2.90;;;;;;;19.71;25.38;99258.47;5024970;27;97154;-78
2021/04/06 07:01:09;;;;;;;7.38;2.50;;;;;;;20.05;25.42;99256.31;5046692;27;96813;-76
2021/04/06 07:03:37;;;;;;;8.85;2.90;;;;;;;20.43;24.52;99255.47;5019709;27;97607;-77
2021/04/06 07:06:23;;;;;;;9.18;2.70;;;;;;;20.06;24.60;99253.50;5053841;27;98421;-75
2021/04/06 07:08:50;;;;;;;4.90;2.28;;;;;;;20.14;24.60;99247.47;5018082;27;101194;-76
2021/04/06 07:11:16;;;;;;;4.50;2.00;;;;;;;19.45;25.13;99257.09;5052870;27;97013;-74
2021/04/06 07:13:43;;;;;;;7.30;2.50;;;;;;;20.94;24.26;99243.66;5056081;27;97316;-76
2021/04/06 07:16:14;;;;;;;7.13;3.58;;;;;;;19.91;25.33;99262.88;5021348;27;100900;-74
2021/04/06 07:18:50;;;;;;;8.52;3.88;;;;;;;20.26;24.84;99248.19;5038298;27;98408;-74
2021/04/06 07:21:19;;;;;;;6.18;2.83;;;;;;;17.86;26.97;99258.09;5050043;27;97540;-75
2021/04/06 07:23:54;;;;;;;5.68;2.17;;;;;;;19.32;24.68;99253.00;5050513;27;96882;-76
2021/04/06 07:26:22;;;;;;;5.68;2.33;;;;;;;17.20;26.88;99250.03;5056693;27;99949;-77
2021/04/06 07:28:48;;;;;;;5.85;2.30;;;;;;;18.38;25.32;99247.63;5048067;27;100032;-78
2021/04/06 07:31:15;;;;;;;3.38;1.98;;;;;;;19.74;24.07;99242.22;5045923;27;97067;-76
2021/04/06 07:33:41;;;;;;;6.80;2.20;;;;;;;21.60;22.83;99240.03;5031878;27;96880;-73
2021/04/06 07:36:09;;;;;;;9.48;2.70;;;;;;;17.99;25.43;99241.16;5054978;27;100576;-73
2021/04/06 07:38:38;;;;;;;6.20;2.50;;;;;;;16.13;28.17;99249.38;5034116;27;101419;-73
2021/04/06 07:41:04;;;;;;;6.20;2.10;;;;;;;19.14;24.54;99242.13;5020878;27;96695;-76
2021/04/06 07:43:30;;;;;;;5.70;2.05;;;;;;;19.40;24.81;99237.19;5043665;27;97186;-73
2021/04/06 07:45:56;;;;;;;6.93;2.13;;;;;;;19.84;24.13;99238.63;5044602;27;101321;-73
2021/04/06 07:48:44;;;;;;;5.97;2.92;;;;;;;20.07;23.74;99243.66;5047119;27;97972;-73
2021/04/06 07:51:30;;;;;;;4.75;2.33;;;;;;;16.54;25.50;99243.63;5045740;27;96856;-73
2021/04/06 07:53:58;;;;;;;10.95;2.08;;;;;;;14.02;29.59;99258.63;5042318;27;96819;-74
2021/04/06 07:56:42;;;;;;;6.00;2.28;;;;;;;14.85;29.09;99247.81;5059628;27;98153;-74
2021/04/06 07:59:08;;;;;;;8.80;3.15;;;;;;;13.44;30.45;99251.78;5071799;27;97248;-74
2021/04/06 08:01:34;;;;;;;6.43;2.30;;;;;;;12.26;32.41;99248.31;5067682;27;97307;-75
2021/04/06 08:04:01;;;;;;;7.55;2.20;;;;;;;12.31;32.91;99254.19;5057256;27;97115;-74
2021/04/06 08:06:29;;;;;;;8.40;2.88;;;;;;;12.11;32.62;99250.06;5056972;27;101386;-74
2021/04/06 08:08:55;;;;;;;7.63;2.90;;;;;;;12.58;32.14;99238.53;5056931;27;100948;-74
2021/04/06 08:11:53;;;;;;;5.10;2.65;;;;;;;15.49;28.92;99245.13;5052628;27;97355;-74
2021/04/06 08:14:19;;;;;;;7.32;2.15;;;;;;;15.84;27.68;99236.47;5053457;27;96995;-74
2021/04/06 08:16:45;;;;;;;7.68;2.35;;;;;;;17.63;26.20;99235.19;5040738;27;98905;-75
2021/04/06 08:19:10;;;;;;;5.13;2.67;;;;;;;19.76;24.47;99226.97;5038176;27;101686;-74
2021/04/06 08:21:36;;;;;;;5.68;2.35;;;;;;;21.24;22.93;99223.88;5036882;27;97050;-75
2021/04/06 08:24:22;;;;;;;9.13;3.13;;;;;;;20.12;23.43;99226.28;5020739;27;96857;-75
2021/04/06 08:26:47;;;;;;;6.50;2.75;;;;;;;15.83;27.42;99233.00;5020446;27;98611;-74
2021/04/06 08:29:33;;;;;;;9.57;3.38;;;;;;;17.71;26.28;99230.06;5019804;27;101442;-74
2021/04/06 08:32:17;;;;;;;4.90;2.60;;;;;;;17.93;25.73;99229.22;5038576;27;97242;-75
2021/04/06 08:34:53;;;;;;;7.63;3.13;;;;;;;19.96;23.76;99218.03;5041154;27;97555;-76
2021/04/06 08:37:39;;;;;;;6.72;2.80;;;;;;;20.68;22.86;99211.44;5033696;27;101115;-75
2021/04/06 08:40:07;;;;;;;5.75;2.55;;;;;;;19.25;24.40;99202.13;5056303;27;99592;-75
2021/04/06 08:42:33;;;;;;;6.45;2.70;;;;;;;17.86;25.35;99204.16;5054540;27;97196;-74
2021/04/06 08:45:00;;;;;;;4.95;2.33;;;;;;;16.66;26.45;99205.59;5026308;27;97263;-77
2021/04/06 08:47:46;;;;;;;5.22;2.30;;;;;;;17.48;26.28;99215.16;5039368;27;101024;-75
2021/04/06 08:50:34;;;;;;;3.78;1.92;;;;;;;14.05;29.86;99223.28;5045015;27;97849;-75
2021/04/06 08:53:00;;;;;;;7.32;2.92;;;;;;;12.68;31.20;99225.66;5039805;27;96772;-76
2021/04/06 08:55:26;;;;;;;4.68;2.20;;;;;;;15.53;28.65;99214.88;5054559;27;98564;-75
2021/04/06 08:57:59;;;;;;;6.28;2.45;;;;;;;17.36;27.13;99215.16;5051220;27;97640;-76
2021/04/06 09:00:26;;;;;;;6.55;1.90;;;;;;;14.81;28.96;99217.28;5045195;27;101125;-75
2021/04/06 09:03:01;;;;;;;5.68;2.30;;;;;;;13.32;30.64;99228.81;5046688;27;96812;-75
2021/04/06 09:05:27;;;;;;;6.22;2.72;;;;;;;12.25;32.05;99215.06;5051674;27;98187;-75
2021/04/06 09:07:53;;;;;;;11.75;2.53;;;;;;;11.40;33.81;99220.72;5067900;27;98046;-76
2021/04/06 09:10:18;;;;;;;7.10;1.90;;;;;;;14.32;30.31;99215.31;5038735;27;101107;-76
2021/04/06 09:12:45;;;;;;;3.50;1.90;;;;;;;13.83;30.82;99218.53;5045714;27;96863;-75
2021/04/06 09:15:13;;;;;;;3.67;2.20;;;;;;;13.24;31.60;99221.38;5054175;27;97234;-78
2021/04/06 09:17:39;;;;;;;5.70;2.42;;;;;;;12.19;32.78;99220.69;5038370;27;99613;-75
2021/04/06 09:20:15;;;;;;;5.10;2.13;;;;;;;11.18;33.52;99223.69;5054156;27;100943;-75
2021/04/06 09:22:42;;;;;;;3.70;1.67;;;;;;;11.63;32.96;99225.56;5033235;27;96972;-75
2021/04/06 09:25:34;;;;;;;11.73;2.30;;;;;;;11.05;34.13;99218.22;5041642;27;97062;-76
2021/04/06 09:28:03;;;;;;;;;;;;;;;10.47;35.11;99227.38;5075887;27;98418;-75
2021/04/06 09:30:40;;;;;;;4.38;2.00;;;;;;;9.99;35.02;99215.75;5054224;27;102326;-75
2021/04/06 09:33:09;;;;;;;6.43;2.00;;;;;;;9.45;35.48;99218.34;5027005;27;96938;-75
2021/04/06 09:35:34;;;;;;;6.50;2.60;;;;;;;9.92;35.79;99223.06;5033689;27;96862;-75
2021/04/06 09:38:00;;;;;;;6.03;2.50;;;;;;;9.50;35.21;99212.84;5056882;27;101134;-75
2021/04/06 09:40:37;;;;;;;6.20;2.67;;;;;;;9.07;36.45;99200.00;5039459;27;100996;-74
2021/04/06 09:43:03;;;;;;;5.20;2.13;;;;;;;9.01;36.41;99209.88;5055564;27;97499;-75
2021/04/06 09:45:29;;;;;;;5.25;2.97;;;;;;;9.53;36.69;99204.84;5047743;27;97655;-75
2021/04/06 09:47:56;;;;;;;4.85;1.90;;;;;;;9.21;35.58;99204.59;5037950;27;101075;-75
2021/04/06 09:50:22;;;;;;;3.83;1.92;;;;;;;9.28;35.91;99205.19;5035400;27;101169;-76
2021/04/06 09:52:48;;;;;;;5.68;1.88;;;;;;;9.26;36.79;99213.09;5040646;27;97102;-75
2021/04/06 09:55:16;;;;;;;9.98;2.35;;;;;;;9.50;37.12;99205.00;5052352;27;97267;-76
2021/04/06 09:57:46;;;;;;;7.82;6.25;;;;;;;9.10;37.47;99204.22;5039103;27;101513;-76
2021/04/06 10:00:15;;;;;;;4.85;2.38;;;;;;;8.79;37.67;99210.84;5055644;27;97961;-77
2021/04/06 10:02:42;;;;;;;6.40;2.10;;;;;;;8.51;38.46;99215.59;5055943;27;96737;-76
2021/04/06 10:05:19;;;;;;;7.13;2.85;;;;;;;9.18;38.38;99214.34;5031073;27;96836;-76
2021/04/06 10:07:46;;;;;;;3.95;2.10;;;;;;;9.16;36.34;99208.34;5030875;27;100643;-75
2021/04/06 10:10:21;;;;;;;2.88;1.40;;;;;;;8.84;35.85;99211.50;5055284;27;100795;-76
2021/04/06 10:12:48;;;;;;;3.88;1.50;;;;;;;8.82;35.82;99210.72;5056273;27;97355;-75
2021/04/06 10:15:20;;;;;;;3.10;1.73;;;;;;;8.73;37.28;99205.91;5073097;27;96737;-74
2021/04/06 10:17:46;;;;;;;4.07;1.92;;;;;;;8.98;36.07;99200.41;5055527;27;99538;-74
2021/04/06 10:20:34;;;;;;;5.45;1.80;;;;;;;8.81;36.39;99205.53;5055645;27;101148;-74
2021/04/06 10:22:59;;;;;;;4.82;2.28;;;;;;;8.80;37.41;99204.69;5056084;27;97246;-74
2021/04/06 10:25:27;;;;;;;3.67;1.80;;;;;;;8.59;37.52;99200.41;5038748;27;96945;-74
2021/04/06 10:27:58;;;;;;;9.73;2.70;;;;;;;9.07;38.22;99181.69;5039267;27;100878;-73
2021/04/06 10:30:34;;;;;;;4.67;1.80;;;;;;;9.60;37.28;99201.03;5091809;27;98103;-74
2021/04/06 10:33:06;;;;;;;7.20;2.42;;;;;;;9.47;35.47;99192.88;5052575;27;96713;-75
2021/04/06 10:35:34;;;;;;;7.75;1.63;;;;;;;9.77;36.12;99194.13;5051756;27;96823;-75
2021/04/06 10:38:02;;;;;;;4.53;1.80;;;;;;;9.39;35.53;99194.19;5035534;27;97760;-74
2021/04/06 10:40:47;;;;;;;4.85;2.13;;;;;;;9.12;36.32;99202.41;5034661;27;100803;-74
2021/04/06 10:43:15;;;;;;;7.03;1.70;;;;;;;9.07;36.23;99197.38;5070477;27;96738;-75
2021/04/06 10:46:14;;;;;;;3.67;1.60;;;;;;;9.19;36.56;99189.84;5053217;27;96757;-74
2021/04/06 10:49:03;;;;;;;5.90;1.88;;;;;;;9.17;36.05;99200.41;5023421;27;98045;-75
2021/04/06 10:51:30;;;;;;;8.48;2.33;;;;;;;8.81;36.23;99201.19;5055809;27;98182;-76
2021/04/06 10:54:04;;;;;;;4.93;1.95;;;;;;;8.96;36.47;99197.03;5039755;27;96761;-75
2021/04/06 10:56:31;;;;;;;7.25;2.38;;;;;;;9.21;36.97;99185.41;5022362;27;98840;-75
2021/04/06 10:59:07;;;;;;;6.95;2.00;;;;;;;9.29;35.17;99183.28;5038826;27;101569;-75
2021/04/06 11:01:49;;;;;;;4.30;1.67;;;;;;;9.27;35.43;99196.44;5057670;27;101214;-76
2021/04/06 11:04:14;;;;;;;;;;;;;;;9.19;35.02;99182.88;5060369;27;97474;-75
2021/04/06 11:06:45;;;;;;;5.32;2.35;;;;;;;9.22;36.19;99181.88;5071964;27;101430;-75
2021/04/06 11:09:14;;;;;;;5.13;2.33;;;;;;;9.36;36.30;99187.31;5075579;27;97920;-75
2021/04/06 11:11:41;;;;;;;7.30;2.13;;;;;;;9.42;35.94;99194.88;5058481;27;101731;-75
2021/04/06 11:14:13;;;;;;;6.78;1.98;;;;;;;9.39;36.92;99191.56;5042496;27;97240;-75
2021/04/06 11:16:40;;;;;;;8.05;2.15;;;;;;;8.90;37.01;99197.31;5059268;27;96841;-74
2021/04/06 11:19:11;;;;;;;8.90;1.88;;;;;;;8.76;37.52;99194.44;5059097;27;98405;-76
2021/04/06 11:21:39;;;;;;;3.05;1.60;;;;;;;8.72;37.42;99188.47;5041419;27;100731;-76
2021/04/06 11:24:07;;;;;;;5.25;2.05;;;;;;;8.71;38.55;99186.78;5042422;27;96805;-75
2021/04/06 11:26:33;;;;;;;3.15;1.75;;;;;;;8.96;38.02;99177.81;5042356;27;96840;-76
2021/04/06 11:28:59;;;;;;;3.72;1.80;;;;;;;9.10;38.51;99182.44;5058388;27;101098;-76
2021/04/06 11:31:25;;;;;;;4.03;1.73;;;;;;;9.11;37.80;99184.16;5057939;27;98216;-78
2021/04/06 11:33:51;;;;;;;5.80;2.40;;;;;;;8.96;37.06;99183.06;5073439;27;96674;-75
2021/04/06 11:36:17;;;;;;;5.47;2.25;;;;;;;8.88;37.27;99179.97;5058608;27;96776;-75
2021/04/06 11:38:44;;;;;;;5.57;2.20;;;;;;;8.95;36.93;99179.59;5074421;27;101741;-76
2021/04/06 11:41:09;;;;;;;5.40;2.30;;;;;;;9.02;37.32;99182.81;5072761;27;98665;-74
2021/04/06 11:43:35;;;;;;;3.97;1.73;;;;;;;8.93;36.44;99188.44;5043680;27;97224;-74
2021/04/06 11:46:01;;;;;;;5.70;1.90;;;;;;;9.17;36.76;99176.00;5042934;27;96927;-74
2021/04/06 11:48:27;;;;;;;11.02;2.53;;;;;;;9.18;36.43;99169.84;5041990;27;99625;-74
2021/04/06 11:50:53;;;;;;;5.53;2.17;;;;;;;9.13;37.11;99177.06;5060122;27;100817;-74
2021/04/06 11:53:18;;;;;;;4.65;2.05;;;;;;;9.12;37.48;99178.00;5043251;27;96594;-76
2021/04/06 11:55:44;;;;;;;7.00;1.92;;;;;;;8.74;36.82;99184.03;5077161;27;96720;-74